Terminal Aerodrome Forecast
Issued by NWS

Home | Current Version | Previous Version | Text Only | Print | Product List | Glossary On
Versions: 1 2 3 4 5 6 7 8 9 10 11 12 13 14
000
FTUS42 KMHX 300521
TAFPGV
TAF
KPGV 300521Z 3006/3106 00000KT P6SM SKC
      TEMPO 3008/3012 4SM BR SCT250
     FM301200 VRB03KT P6SM BKN250
     FM301600 20007KT P6SM VCTS BKN040CB
     FM310200 17005KT P6SM SCT060
      AMD LTD TO CLD VIS AND WIND=

USA.gov is the U.S. government's official web portal to all federal, state and local government web resources and services.